Time;durP1;ratioP1;P1;durP2;ratioP2;P2;SDS_P1;SDS_P2;PMS_P1;PMS_P2;Temp;Humidity;BMP_temperature;BMP_pressure;BME280_temperature;BME280_humidity;BME280_pressure;Samples;Min_cycle;Max_cycle;Signal;HPM_P1;HPM_P2
2021/12/19 00:00:04;;;;;;;6.37;4.87;;;;;;;7.19;86.64;102428.41;5016705;28;20687;-84
2021/12/19 00:10:42;;;;;;;7.13;5.63;;;;;;;7.18;86.12;102405.47;5015339;28;20216;-83
2021/12/19 00:13:09;;;;;;;7.13;5.47;;;;;;;7.16;86.41;102402.88;5015995;28;20540;-84
2021/12/19 00:15:36;;;;;;;8.37;5.10;;;;;;;7.15;85.75;102413.50;5014253;28;20285;-83
2021/12/19 00:18:02;;;;;;;6.37;4.87;;;;;;;7.11;85.69;102406.50;5017736;28;20198;-83
2021/12/19 00:20:30;;;;;;;7.30;4.97;;;;;;;7.09;86.01;102400.38;5016537;28;20290;-83
2021/12/19 00:22:57;;;;;;;5.33;4.83;;;;;;;7.08;85.98;102407.44;5015497;28;20223;-82
2021/12/19 00:25:23;;;;;;;5.70;4.23;;;;;;;7.06;85.20;102409.25;5018397;28;20203;-84
2021/12/19 00:27:50;;;;;;;7.33;4.97;;;;;;;7.01;85.14;102405.81;5017169;28;20237;-83
2021/12/19 00:30:16;;;;;;;5.47;4.53;;;;;;;7.01;85.81;102410.25;5019291;28;20210;-84
2021/12/19 00:32:43;;;;;;;5.60;4.33;;;;;;;7.01;85.69;102410.25;5018836;28;20195;-83
2021/12/19 00:35:10;;;;;;;5.90;5.30;;;;;;;6.99;85.34;102402.31;5021834;28;20573;-84
2021/12/19 00:37:38;;;;;;;6.30;5.33;;;;;;;6.95;84.98;102406.84;5020269;28;20533;-83
2021/12/19 00:40:06;;;;;;;8.13;5.20;;;;;;;6.92;85.56;102395.44;5021144;28;20291;-83
2021/12/19 00:42:35;;;;;;;7.30;5.10;;;;;;;6.91;85.60;102406.91;5019331;28;20199;-83
2021/12/19 00:45:05;;;;;;;6.93;5.63;;;;;;;6.91;85.59;102409.56;5017710;28;20211;-83
2021/12/19 00:47:32;;;;;;;7.50;5.43;;;;;;;6.89;85.19;102406.06;5025347;28;20230;-82
2021/12/19 00:49:59;;;;;;;7.63;6.03;;;;;;;6.87;85.26;102403.47;5019585;28;20206;-84
2021/12/19 00:52:25;;;;;;;6.87;5.83;;;;;;;6.86;84.82;102398.19;5025964;28;20209;-84
2021/12/19 00:54:53;;;;;;;7.87;6.77;;;;;;;6.83;84.99;102391.16;5020492;28;20206;-84
2021/12/19 00:57:20;;;;;;;8.40;5.83;;;;;;;6.83;85.13;102391.16;5016784;28;20230;-84
2021/12/19 00:59:46;;;;;;;7.90;6.10;;;;;;;6.82;85.75;102396.50;5012986;28;20202;-84
2021/12/19 01:02:13;;;;;;;10.43;6.50;;;;;;;6.80;85.29;102391.25;5019921;28;20206;-84
2021/12/19 01:04:39;;;;;;;9.83;7.03;;;;;;;6.79;85.09;102394.81;5016610;28;20647;-83
2021/12/19 01:07:08;;;;;;;8.53;6.63;;;;;;;6.78;85.53;102382.47;5016249;28;20322;-84
2021/12/19 01:09:35;;;;;;;9.00;6.70;;;;;;;6.76;85.40;102383.41;5019986;28;20285;-83
2021/12/19 01:12:05;;;;;;;7.70;5.73;;;;;;;6.77;85.40;102380.72;5016227;28;20717;-83
2021/12/19 01:14:31;;;;;;;8.30;6.20;;;;;;;6.76;85.28;102373.69;5019498;28;20233;-83
2021/12/19 01:16:58;;;;;;;7.37;5.97;;;;;;;6.74;85.53;102375.47;5016894;28;20278;-83
2021/12/19 01:19:25;;;;;;;7.90;6.63;;;;;;;6.74;85.60;102375.47;5020758;28;20199;-83
2021/12/19 01:21:51;;;;;;;8.10;5.97;;;;;;;6.75;85.49;102371.94;5016072;28;20210;-83
2021/12/19 01:24:18;;;;;;;7.47;6.20;;;;;;;6.74;85.79;102364.88;5017767;28;20721;-83
2021/12/19 01:26:45;;;;;;;8.33;6.33;;;;;;;6.74;85.59;102367.53;5017533;28;20582;-84
2021/12/19 01:29:14;;;;;;;7.80;6.70;;;;;;;6.75;85.66;102361.34;5054188;22;20299;-76
2021/12/19 01:31:40;;;;;;;7.13;6.20;;;;;;;6.73;85.94;102367.56;5048061;28;20334;-72
2021/12/19 01:34:07;;;;;;;8.63;6.90;;;;;;;6.70;86.23;102368.50;5049613;28;20232;-74
2021/12/19 01:36:34;;;;;;;10.30;6.40;;;;;;;6.70;85.86;102363.19;5050674;28;20205;-75
2021/12/19 01:39:00;;;;;;;6.87;5.50;;;;;;;6.70;85.74;102352.59;5049896;28;20205;-75
2021/12/19 01:41:27;;;;;;;7.67;5.87;;;;;;;6.72;86.02;102348.16;5050393;28;20204;-75
2021/12/19 01:43:54;;;;;;;6.53;5.40;;;;;;;6.71;85.96;102349.06;5058875;22;20229;-81
2021/12/19 01:46:22;;;;;;;6.90;4.70;;;;;;;6.72;86.31;102329.63;5048460;28;20202;-81
2021/12/19 01:48:48;;;;;;;8.60;5.03;;;;;;;6.73;85.72;102335.78;5053506;28;20697;-80
2021/12/19 01:51:15;;;;;;;6.03;5.37;;;;;;;6.73;85.70;102334.03;5051492;28;20568;-79
2021/12/19 01:53:41;;;;;;;6.53;5.13;;;;;;;6.73;86.09;102323.44;5048260;28;20213;-81
2021/12/19 01:56:08;;;;;;;6.10;4.80;;;;;;;6.73;85.76;102318.13;5071832;28;20292;-81
2021/12/19 01:58:35;;;;;;;5.70;4.80;;;;;;;6.74;86.24;102300.47;5053697;28;20224;-79
2021/12/19 02:01:02;;;;;;;4.90;4.27;;;;;;;6.74;85.90;102309.28;5045614;28;20208;-79
2021/12/19 02:03:31;;;;;;;5.83;4.83;;;;;;;6.72;86.09;102308.44;5050573;28;20205;-83
2021/12/19 02:05:57;;;;;;;6.93;5.00;;;;;;;6.73;85.84;102304.91;5049424;28;20232;-80
2021/12/19 02:08:24;;;;;;;6.73;4.67;;;;;;;6.72;86.36;102297.84;5055271;28;20591;-79
2021/12/19 02:10:50;;;;;;;6.30;4.27;;;;;;;6.73;86.19;102293.44;5055245;28;20288;-81
2021/12/19 02:13:18;;;;;;;6.37;4.30;;;;;;;6.72;86.73;102296.97;5055473;28;20209;-81
2021/12/19 02:15:46;;;;;;;7.07;4.87;;;;;;;6.74;86.51;102296.03;5062347;28;20293;-81
2021/12/19 02:18:15;;;;;;;5.40;4.07;;;;;;;6.75;86.29;102292.50;5055243;28;20235;-81
2021/12/19 02:20:47;;;;;;;6.77;4.50;;;;;;;6.77;86.69;102288.03;5055543;28;20212;-79
2021/12/19 02:23:14;;;;;;;6.13;4.10;;;;;;;6.75;86.88;102281.91;5055800;28;20229;-79
2021/12/19 02:25:41;;;;;;;6.27;4.30;;;;;;;6.73;87.11;102273.13;5051394;28;20332;-79
2021/12/19 02:28:08;;;;;;;7.07;4.80;;;;;;;6.74;87.10;102274.88;5045635;28;20260;-80
2021/12/19 02:30:36;;;;;;;5.63;4.40;;;;;;;6.76;86.86;102264.25;5053115;28;21881;-81
2021/12/19 02:33:02;;;;;;;6.37;4.17;;;;;;;6.76;86.97;102265.13;5051993;28;20213;-82
2021/12/19 02:35:33;;;;;;;6.20;4.57;;;;;;;6.76;86.77;102262.47;5051489;28;20206;-83
2021/12/19 02:49:05;;;;;;;8.73;4.60;;;;;;;6.71;87.21;102253.75;5044210;28;20254;-81
2021/12/19 02:51:34;;;;;;;5.77;4.03;;;;;;;6.73;87.47;102246.63;5051553;28;20296;-80
2021/12/19 02:54:04;;;;;;;8.07;4.67;;;;;;;6.74;87.37;102247.50;5049136;28;20199;-79
2021/12/19 02:56:31;;;;;;;7.30;5.20;;;;;;;6.76;87.15;102240.41;5051364;28;20197;-82
2021/12/19 02:58:58;;;;;;;7.13;4.47;;;;;;;6.78;87.00;102234.19;5050406;28;20221;-81
2021/12/19 03:01:25;;;;;;;7.40;5.10;;;;;;;6.77;87.31;102239.50;5057406;28;20193;-82
2021/12/19 03:03:51;;;;;;;6.80;4.70;;;;;;;6.75;87.40;102241.31;5049830;28;20232;-83
2021/12/19 03:06:18;;;;;;;6.60;4.60;;;;;;;6.76;87.39;102232.47;5048428;28;20217;-82
2021/12/19 03:08:48;;;;;;;7.27;4.67;;;;;;;6.77;87.37;102229.78;5058346;28;20225;-81
2021/12/19 03:19:25;;;;;;;6.80;4.63;;;;;;;6.80;87.44;102216.47;5065005;28;20322;-81
2021/12/19 03:21:51;;;;;;;6.70;4.33;;;;;;;6.82;87.46;102227.00;5059381;28;20206;-80
2021/12/19 03:24:19;;;;;;;7.57;4.93;;;;;;;6.80;87.54;102220.91;5057820;28;20958;-82
2021/12/19 03:26:47;;;;;;;6.10;4.50;;;;;;;6.79;87.41;102213.88;5051714;28;20563;-81
2021/12/19 03:29:14;;;;;;;8.17;4.43;;;;;;;6.79;87.49;102201.50;5053733;28;20701;-81
2021/12/19 03:31:40;;;;;;;7.47;5.00;;;;;;;6.80;87.83;102202.38;5056187;28;20197;-82
2021/12/19 03:34:07;;;;;;;6.37;4.50;;;;;;;6.79;87.68;102198.84;5050061;28;20619;-80
2021/12/19 03:36:34;;;;;;;6.77;4.67;;;;;;;6.80;87.95;102205.91;5058910;28;20662;-82
2021/12/19 03:39:04;;;;;;;6.03;4.30;;;;;;;6.79;87.35;102182.97;5048347;28;20232;-82
2021/12/19 03:41:34;;;;;;;7.10;4.17;;;;;;;6.80;87.33;102199.72;5054807;28;20197;-81
2021/12/19 03:44:04;;;;;;;5.90;4.37;;;;;;;6.81;87.40;102202.31;5053071;28;20273;-82
2021/12/19 03:46:32;;;;;;;8.33;4.50;;;;;;;6.82;87.61;102204.06;5055053;28;20201;-82
2021/12/19 03:48:59;;;;;;;6.97;4.70;;;;;;;6.81;87.44;102207.59;5047697;28;20225;-81
2021/12/19 03:51:25;;;;;;;7.80;4.50;;;;;;;6.81;87.54;102201.44;5049730;28;20204;-81
2021/12/19 03:53:52;;;;;;;9.20;4.97;;;;;;;6.81;87.60;102196.13;5051418;28;20207;-78
2021/12/19 03:56:19;;;;;;;7.20;4.80;;;;;;;6.82;87.15;102192.59;5051663;28;20205;-82
2021/12/19 03:58:46;;;;;;;8.77;5.13;;;;;;;6.82;87.21;102188.16;5046812;28;20594;-82
2021/12/19 04:01:14;;;;;;;8.20;4.77;;;;;;;6.83;87.50;102189.91;5046662;28;20232;-81
2021/12/19 04:03:41;;;;;;;8.70;5.50;;;;;;;6.84;87.65;102186.34;5047547;28;20237;-78
2021/12/19 04:06:07;;;;;;;6.77;4.70;;;;;;;6.83;87.53;102184.59;5049375;28;20288;-82
2021/12/19 04:08:34;;;;;;;7.20;5.20;;;;;;;6.81;87.64;102178.47;5051729;28;20230;-82
2021/12/19 04:11:02;;;;;;;7.40;4.40;;;;;;;6.81;87.60;102180.25;5048288;28;20200;-82
2021/12/19 04:13:28;;;;;;;5.87;4.30;;;;;;;6.81;87.30;102177.59;5051594;28;20663;-82
2021/12/19 04:15:55;;;;;;;7.30;4.60;;;;;;;6.77;87.68;102181.25;5045662;28;20297;-82
2021/12/19 04:18:23;;;;;;;7.60;4.10;;;;;;;6.77;87.60;102179.47;5051073;28;20235;-81
2021/12/19 04:20:50;;;;;;;8.80;4.37;;;;;;;6.80;87.52;102187.34;5055933;28;20232;-83
2021/12/19 04:23:17;;;;;;;5.47;3.90;;;;;;;6.80;87.40;102179.41;5053173;28;20561;-81
2021/12/19 04:25:44;;;;;;;7.53;4.17;;;;;;;6.82;87.31;102174.03;5061816;28;20216;-82
2021/12/19 04:28:10;;;;;;;9.00;4.20;;;;;;;6.79;87.06;102172.38;5062978;28;20275;-80
2021/12/19 04:30:37;;;;;;;5.37;3.67;;;;;;;6.81;87.51;102181.13;5062872;28;20208;-81
2021/12/19 04:33:07;;;;;;;6.17;3.60;;;;;;;6.80;86.99;102174.13;5062393;28;20201;-82
2021/12/19 04:35:39;;;;;;;5.97;3.27;;;;;;;6.80;87.35;102176.75;5053951;28;20198;-82
2021/12/19 04:41:11;;;;;;;4.93;2.97;;;;;;;6.77;87.48;102153.00;5024146;28;20216;-82
2021/12/19 04:54:55;;;;;;;3.87;3.20;;;;;;;6.76;87.39;102137.16;5006574;28;20206;-81
2021/12/19 04:57:31;;;;;;;4.33;2.87;;;;;;;6.76;87.73;102151.25;5049820;28;20210;-81
2021/12/19 04:59:59;;;;;;;4.37;3.10;;;;;;;6.75;87.21;102149.50;5052983;28;20229;-81
2021/12/19 05:16:16;;;;;;;4.03;2.90;;;;;;;6.70;87.17;102148.75;5050922;28;20701;-79
2021/12/19 05:18:45;;;;;;;3.47;2.30;;;;;;;6.72;87.21;102146.94;5053005;28;20651;-82
2021/12/19 05:21:16;;;;;;;4.60;3.10;;;;;;;6.73;87.33;102132.78;5066906;28;20648;-82
2021/12/19 05:24:19;;;;;;;4.33;2.80;;;;;;;6.75;87.58;102116.88;5053966;28;20201;-82
2021/12/19 05:26:47;;;;;;;4.33;2.90;;;;;;;6.75;87.47;102101.84;5059841;28;20209;-82
2021/12/19 05:29:14;;;;;;;4.10;3.13;;;;;;;6.75;87.28;102106.28;5042464;28;20234;-80
2021/12/19 05:31:40;;;;;;;4.87;3.13;;;;;;;6.74;87.72;102115.13;5050158;28;20293;-83
2021/12/19 05:34:07;;;;;;;5.77;3.27;;;;;;;6.71;87.38;102118.72;5047034;28;20209;-81
2021/12/19 05:47:31;;;;;;;7.97;4.30;;;;;;;6.73;87.69;102108.97;5045498;28;20251;-83
2021/12/19 05:49:58;;;;;;;6.90;4.50;;;;;;;6.73;87.83;102103.66;5052157;28;20225;-81
2021/12/19 05:52:26;;;;;;;8.23;4.77;;;;;;;6.76;87.57;102102.72;5052008;28;20209;-82
2021/12/19 05:54:54;;;;;;;8.23;4.63;;;;;;;6.76;87.86;102103.59;5047514;28;20209;-82
2021/12/19 05:57:21;;;;;;;6.33;4.57;;;;;;;6.79;87.86;102106.19;5043113;28;20202;-82
2021/12/19 05:59:47;;;;;;;8.77;5.20;;;;;;;6.79;87.55;102087.63;5049743;28;20229;-75
2021/12/19 06:02:14;;;;;;;6.83;5.53;;;;;;;6.81;87.24;102092.88;5053051;28;20210;-82
2021/12/19 06:04:41;;;;;;;9.50;5.60;;;;;;;6.81;87.55;102116.69;5050636;28;20212;-82
2021/12/19 06:07:07;;;;;;;9.60;5.13;;;;;;;6.80;87.43;102107.91;5047173;28;20209;-81
2021/12/19 06:09:34;;;;;;;8.83;5.80;;;;;;;6.82;87.49;102106.06;5046398;28;20228;-83
2021/12/19 06:12:02;;;;;;;11.43;6.03;;;;;;;6.82;87.42;102095.47;5046128;28;20197;-83
2021/12/19 06:14:32;;;;;;;8.80;5.73;;;;;;;6.81;87.08;102096.38;5045252;28;20205;-83
2021/12/19 06:16:59;;;;;;;13.07;6.23;;;;;;;6.82;87.70;102098.13;5046345;28;20198;-83
2021/12/19 06:19:26;;;;;;;9.10;5.80;;;;;;;6.83;87.10;102099.00;5053747;28;20285;-80
2021/12/19 06:21:52;;;;;;;9.13;6.00;;;;;;;6.81;86.97;102085.78;5042840;28;20198;-82
2021/12/19 06:24:19;;;;;;;10.83;5.97;;;;;;;6.81;87.06;102083.13;5046755;28;20651;-82
2021/12/19 06:26:45;;;;;;;9.40;6.20;;;;;;;6.84;86.91;102091.00;5046176;28;20187;-82
2021/12/19 06:29:14;;;;;;;11.23;6.20;;;;;;;6.83;87.47;102080.47;5046293;28;20244;-80
2021/12/19 06:31:40;;;;;;;8.20;5.90;;;;;;;6.83;87.39;102094.56;5049131;28;20194;-80
2021/12/19 06:34:07;;;;;;;11.33;6.90;;;;;;;6.79;87.58;102087.63;5042862;28;20285;-83
2021/12/19 06:36:34;;;;;;;12.57;6.53;;;;;;;6.80;87.41;102084.09;5050798;28;20212;-83
2021/12/19 06:39:02;;;;;;;13.10;6.40;;;;;;;6.80;86.89;102076.13;5052565;28;20217;-83
2021/12/19 06:41:28;;;;;;;10.57;7.00;;;;;;;6.80;87.20;102076.13;5050391;28;20214;-82
2021/12/19 06:43:55;;;;;;;10.90;7.13;;;;;;;6.78;87.30;102085.91;5052828;28;20209;-83
2021/12/19 06:46:23;;;;;;;13.23;6.87;;;;;;;6.77;87.36;102078.84;5044553;28;20217;-81
2021/12/19 06:48:49;;;;;;;11.37;6.87;;;;;;;6.77;87.58;102070.91;5047540;28;20234;-80
2021/12/19 06:51:16;;;;;;;11.63;6.47;;;;;;;6.77;87.19;102083.28;5046110;28;20214;-82
2021/12/19 06:53:43;;;;;;;12.50;6.80;;;;;;;6.77;87.29;102076.22;5050927;28;20212;-83
2021/12/19 06:56:09;;;;;;;9.63;5.93;;;;;;;6.75;87.26;102059.50;5051097;28;20199;-83
2021/12/19 06:58:36;;;;;;;9.00;5.93;;;;;;;6.76;87.43;102057.72;5049803;28;20282;-82
2021/12/19 07:01:02;;;;;;;11.90;6.30;;;;;;;6.73;87.66;102060.44;5046989;28;20220;-79
2021/12/19 07:03:30;;;;;;;9.60;5.63;;;;;;;6.74;87.32;102065.69;5044668;28;20208;-83
2021/12/19 07:05:57;;;;;;;9.97;5.70;;;;;;;6.75;86.95;102053.31;5047936;28;20202;-83
2021/12/19 07:08:24;;;;;;;10.07;5.93;;;;;;;6.76;87.74;102052.41;5051185;28;20307;-84
2021/12/19 07:10:51;;;;;;;8.97;5.77;;;;;;;6.78;87.41;102050.59;5050444;28;20217;-83
2021/12/19 07:13:20;;;;;;;7.67;5.20;;;;;;;6.77;87.40;102041.78;5052827;28;20586;-81
2021/12/19 07:15:47;;;;;;;12.73;5.57;;;;;;;6.79;87.01;102039.09;5049566;28;20206;-83
2021/12/19 07:18:13;;;;;;;7.10;5.00;;;;;;;6.78;86.91;102046.19;5048160;28;20225;-83
2021/12/19 07:20:42;;;;;;;9.63;5.70;;;;;;;6.77;87.31;102044.44;5042917;28;20552;-83
2021/12/19 07:23:11;;;;;;;9.90;5.83;;;;;;;6.76;87.15;102040.03;5048418;28;20229;-82
2021/12/19 07:25:38;;;;;;;9.17;6.00;;;;;;;6.74;86.98;102039.22;5044280;28;20205;-83
2021/12/19 07:28:05;;;;;;;9.67;5.90;;;;;;;6.74;87.20;102033.03;5048966;28;20229;-82
2021/12/19 07:30:34;;;;;;;9.17;5.17;;;;;;;6.77;87.45;102027.69;5043247;28;20687;-83
2021/12/19 07:33:01;;;;;;;10.53;5.93;;;;;;;6.78;87.54;102034.72;5048262;28;20205;-81
2021/12/19 07:35:34;;;;;;;8.80;5.13;;;;;;;6.76;87.36;102018.88;5051774;28;20223;-81
2021/12/19 07:38:03;;;;;;;8.43;4.97;;;;;;;6.77;87.61;102027.69;5042305;28;20209;-78
2021/12/19 07:40:36;;;;;;;8.00;5.10;;;;;;;6.77;87.54;102023.25;5057221;28;20201;-80
2021/12/19 07:43:03;;;;;;;8.13;4.27;;;;;;;6.77;87.33;102012.66;5050059;28;20663;-82
2021/12/19 07:45:32;;;;;;;6.57;4.37;;;;;;;6.77;87.45;102019.72;5043551;28;20226;-82
2021/12/19 07:48:01;;;;;;;8.80;4.20;;;;;;;6.72;87.58;102011.03;5047930;28;20229;-84
2021/12/19 07:50:28;;;;;;;9.60;4.80;;;;;;;6.69;87.09;102009.31;5049301;28;20237;-84
2021/12/19 07:52:55;;;;;;;9.17;4.87;;;;;;;6.70;86.94;102005.78;5046899;28;20256;-81
2021/12/19 07:55:24;;;;;;;8.37;4.27;;;;;;;6.72;87.38;102006.59;5044852;28;20271;-82
2021/12/19 07:57:51;;;;;;;7.17;4.30;;;;;;;6.70;87.04;102003.13;5044151;28;20289;-83
2021/12/19 08:00:20;;;;;;;4.93;3.30;;;;;;;6.71;87.08;102001.34;5051128;28;20664;-83
2021/12/19 08:02:46;;;;;;;8.37;3.53;;;;;;;6.72;86.97;102011.03;5053776;28;20210;-83
2021/12/19 08:05:14;;;;;;;6.60;3.23;;;;;;;6.74;87.33;102003.91;5054274;28;20209;-80
2021/12/19 08:07:42;;;;;;;6.00;3.20;;;;;;;6.75;86.84;102005.66;5047387;28;20214;-81
2021/12/19 08:11:39;;;;;;;6.20;3.00;;;;;;;6.74;87.62;102014.50;5052674;28;20381;-82
2021/12/19 08:13:02;;;;;;;7.63;3.50;;;;;;;6.76;86.82;102004.75;5046154;28;20621;-82
2021/12/19 08:15:28;;;;;;;5.47;2.87;;;;;;;6.74;87.39;102018.03;5059709;28;20208;-81
2021/12/19 08:17:55;;;;;;;6.27;2.90;;;;;;;6.74;86.64;102012.72;5050021;28;20206;-82
2021/12/19 08:20:22;;;;;;;5.73;2.50;;;;;;;6.74;87.07;102010.09;5055428;28;20662;-82
2021/12/19 08:22:50;;;;;;;4.93;2.07;;;;;;;6.69;87.39;102008.47;5063630;28;20211;-77
2021/12/19 08:25:17;;;;;;;4.60;2.10;;;;;;;6.70;87.23;101992.53;5052796;28;20224;-82
2021/12/19 08:27:44;;;;;;;4.93;2.20;;;;;;;6.70;87.35;102008.41;5052423;28;20202;-82
2021/12/19 08:30:14;;;;;;;5.50;1.87;;;;;;;6.70;86.99;102004.91;5053740;28;20222;-82
2021/12/19 08:32:41;;;;;;;5.47;3.10;;;;;;;6.69;87.35;101995.22;5047853;28;20198;-83
2021/12/19 08:35:09;;;;;;;4.30;2.50;;;;;;;6.68;87.17;101999.66;5048437;28;20203;-83
2021/12/19 08:37:35;;;;;;;5.23;2.60;;;;;;;6.70;87.38;101997.84;5050550;28;20202;-83
2021/12/19 08:40:02;;;;;;;5.17;2.83;;;;;;;6.69;87.41;101988.16;5056170;28;20726;-80
2021/12/19 08:42:31;;;;;;;8.57;3.23;;;;;;;6.69;87.15;101992.56;5071283;28;20231;-81
2021/12/19 08:44:59;;;;;;;5.97;3.10;;;;;;;6.65;87.19;101991.78;5069865;28;20200;-81
2021/12/19 08:47:28;;;;;;;5.60;3.33;;;;;;;6.63;86.83;101998.88;5057898;28;20213;-82
2021/12/19 08:49:54;;;;;;;6.33;3.53;;;;;;;6.63;87.35;101986.53;5054893;28;20242;-82
2021/12/19 08:52:21;;;;;;;5.53;3.73;;;;;;;6.64;87.19;101987.38;5049350;28;20189;-81
2021/12/19 08:54:48;;;;;;;7.73;4.00;;;;;;;6.67;87.40;101982.03;5058185;28;20210;-82
2021/12/19 08:57:14;;;;;;;7.17;3.13;;;;;;;6.70;87.42;101989.03;5054806;28;20206;-82
2021/12/19 08:59:42;;;;;;;7.67;3.57;;;;;;;6.70;87.16;101984.59;5045294;28;20587;-83
2021/12/19 09:02:09;;;;;;;5.93;3.27;;;;;;;6.72;87.23;101984.56;5044815;28;20216;-82
2021/12/19 09:04:37;;;;;;;6.87;4.50;;;;;;;6.73;86.41;101976.56;5047377;28;20285;-83
2021/12/19 09:07:04;;;;;;;9.30;3.73;;;;;;;6.72;87.15;101980.13;5044950;28;20260;-82
2021/12/19 09:09:30;;;;;;;6.80;3.60;;;;;;;6.73;87.00;101981.88;5043980;28;20249;-81
2021/12/19 09:11:57;;;;;;;5.87;3.10;;;;;;;6.73;87.00;101983.66;5049331;28;20686;-83
2021/12/19 09:14:23;;;;;;;8.27;3.57;;;;;;;6.75;86.70;101980.06;5048941;28;20762;-82
2021/12/19 09:16:50;;;;;;;7.23;3.80;;;;;;;6.76;86.58;101980.94;5053473;28;20212;-81
2021/12/19 09:19:17;;;;;;;7.93;3.77;;;;;;;6.77;87.09;101993.25;5051675;28;20229;-81
2021/12/19 09:21:45;;;;;;;10.10;4.47;;;;;;;6.78;86.90;101998.50;5049222;28;20198;-82
2021/12/19 09:24:12;;;;;;;7.40;3.67;;;;;;;6.77;86.61;101991.47;5049850;28;20197;-82
2021/12/19 09:26:39;;;;;;;6.87;3.73;;;;;;;6.78;87.51;102006.47;5046906;28;20198;-83
2021/12/19 09:29:06;;;;;;;8.93;3.47;;;;;;;6.80;86.43;101996.69;5053624;28;20226;-81
2021/12/19 09:31:32;;;;;;;6.33;3.53;;;;;;;6.79;87.02;101989.66;5043854;28;20222;-83
2021/12/19 09:33:59;;;;;;;6.83;2.90;;;;;;;6.78;86.54;101985.28;5047681;28;20198;-83
2021/12/19 09:36:25;;;;;;;7.33;3.83;;;;;;;6.81;86.95;101987.81;5047174;28;20206;-82
2021/12/19 09:38:56;;;;;;;6.70;3.77;;;;;;;6.76;87.44;101980.94;5048118;28;20222;-82
2021/12/19 09:41:28;;;;;;;11.27;4.07;;;;;;;6.78;87.46;101987.06;5051309;28;20193;-82
2021/12/19 09:43:58;;;;;;;7.10;3.83;;;;;;;6.79;87.23;101980.84;5050821;28;20625;-84
2021/12/19 09:46:31;;;;;;;5.80;3.90;;;;;;;6.81;87.16;101979.00;5050307;28;20716;-82
2021/12/19 09:49:00;;;;;;;8.30;3.80;;;;;;;6.81;87.45;101987.81;5048233;28;20427;-83
2021/12/19 09:51:27;;;;;;;7.70;4.60;;;;;;;6.80;87.51;101970.22;5053198;28;20237;-83
2021/12/19 09:53:55;;;;;;;7.03;4.07;;;;;;;6.80;88.11;101966.69;5052742;28;20208;-84
2021/12/19 09:56:21;;;;;;;7.03;3.30;;;;;;;6.78;87.76;101964.09;5050838;28;20734;-83
2021/12/19 09:58:50;;;;;;;8.23;4.43;;;;;;;6.75;88.02;101963.31;5047037;28;20227;-81
2021/12/19 10:01:17;;;;;;;4.70;3.17;;;;;;;6.77;87.70;101964.13;5050859;28;20202;-83
2021/12/19 10:03:46;;;;;;;13.77;5.83;;;;;;;6.80;87.67;101954.34;5046281;28;20233;-82
2021/12/19 10:06:18;;;;;;;6.43;3.90;;;;;;;6.82;87.58;101957.78;5052553;28;20205;-83
2021/12/19 10:08:46;;;;;;;7.07;4.00;;;;;;;6.78;88.13;101948.22;5048819;28;20226;-84
2021/12/19 10:11:32;;;;;;;6.00;3.63;;;;;;;6.78;87.66;101942.03;5054064;28;20321;-84
2021/12/19 10:13:59;;;;;;;13.43;5.07;;;;;;;6.80;88.40;101950.81;5048128;28;20275;-82
2021/12/19 10:16:29;;;;;;;7.00;3.20;;;;;;;6.79;87.55;101942.00;5051845;28;20225;-84
2021/12/19 10:18:57;;;;;;;5.83;3.00;;;;;;;6.80;88.34;101934.94;5048210;28;20225;-83
2021/12/19 10:21:24;;;;;;;9.90;3.53;;;;;;;6.80;88.21;101935.81;5048534;28;20648;-82
2021/12/19 10:23:51;;;;;;;6.70;3.30;;;;;;;6.78;88.08;101940.25;5042863;28;20606;-84
2021/12/19 10:26:18;;;;;;;6.57;3.80;;;;;;;6.77;88.46;101942.94;5050903;28;20570;-80
2021/12/19 10:28:54;;;;;;;5.80;2.80;;;;;;;6.78;88.35;101929.66;5048232;28;20301;-84
2021/12/19 10:31:21;;;;;;;28.30;19.93;;;;;;;6.76;88.63;101928.84;5048249;28;20236;-83
2021/12/19 10:33:48;;;;;;;4.90;4.40;;;;;;;6.79;88.64;101926.13;5051475;28;21696;-83
2021/12/19 10:36:17;;;;;;;8.97;7.87;;;;;;;6.79;88.84;101918.16;5047891;28;20209;-84
2021/12/19 10:38:45;;;;;;;5.03;3.73;;;;;;;6.80;88.95;101917.25;5051042;28;20228;-82
2021/12/19 10:41:17;;;;;;;9.27;5.57;;;;;;;6.83;88.69;101916.28;5047013;28;20206;-81
2021/12/19 10:43:46;;;;;;;3.57;2.40;;;;;;;6.81;89.28;101911.03;5048893;28;20220;-83
2021/12/19 10:46:14;;;;;;;6.20;2.83;;;;;;;6.82;89.43;101902.16;5049868;28;20645;-80
2021/12/19 10:48:42;;;;;;;4.57;2.83;;;;;;;6.83;88.87;101906.56;5048398;28;20312;-80
2021/12/19 10:51:12;;;;;;;4.50;2.63;;;;;;;6.81;89.25;101895.13;5047122;28;20227;-81
2021/12/19 10:53:40;;;;;;;13.20;12.00;;;;;;;6.80;89.10;101889.91;5041555;28;20591;-82
2021/12/19 10:56:09;;;;;;;7.57;3.37;;;;;;;6.80;88.84;101896.09;5051111;28;20236;-83
2021/12/19 10:58:42;;;;;;;3.90;2.90;;;;;;;6.82;89.37;101888.06;5047617;28;20237;-84
2021/12/19 11:01:14;;;;;;;4.13;3.20;;;;;;;6.80;89.22;101890.78;5047450;28;20226;-86
2021/12/19 11:03:46;;;;;;;5.17;4.00;;;;;;;6.79;89.42;101880.22;5045519;28;20251;-85
2021/12/19 11:06:22;;;;;;;4.83;2.37;;;;;;;6.78;89.50;101876.72;5052556;28;20194;-84
2021/12/19 11:08:53;;;;;;;4.77;2.60;;;;;;;6.78;89.92;101887.31;5043366;28;20237;-85
2021/12/19 11:11:51;;;;;;;6.33;3.97;;;;;;;6.78;90.03;101876.72;5046290;28;20218;-83
2021/12/19 11:14:24;;;;;;;3.37;2.40;;;;;;;6.80;89.81;101874.03;4999571;28;20214;-85
2021/12/19 11:16:54;;;;;;;3.57;2.30;;;;;;;6.79;89.88;101870.50;5042116;28;20206;-85
2021/12/19 11:19:25;;;;;;;3.90;2.07;;;;;;;6.80;89.97;101876.69;5046921;28;20240;-86
2021/12/19 11:21:54;;;;;;;5.00;2.10;;;;;;;6.78;89.91;101860.81;5050146;28;20293;-81
2021/12/19 11:24:24;;;;;;;4.27;1.80;;;;;;;6.79;89.87;101853.75;5048810;28;20655;-85
2021/12/19 11:26:53;;;;;;;3.13;1.53;;;;;;;6.75;90.71;101852.97;5048413;28;20216;-86
2021/12/19 11:29:22;;;;;;;3.80;1.80;;;;;;;6.75;90.30;101842.38;5045232;28;20316;-83
2021/12/19 11:31:57;;;;;;;3.23;1.77;;;;;;;6.76;90.63;101844.13;5044365;28;20222;-83
2021/12/19 11:34:36;;;;;;;3.83;1.50;;;;;;;6.76;90.90;101841.47;5041621;28;20200;-81
2021/12/19 11:37:10;;;;;;;2.80;1.60;;;;;;;6.77;90.89;101835.25;5049162;28;20288;-83
2021/12/19 11:39:40;;;;;;;2.80;1.43;;;;;;;6.77;91.22;101840.56;5054218;28;20216;-83
2021/12/19 11:42:11;;;;;;;2.40;1.57;;;;;;;6.78;91.29;101846.72;5047465;28;20633;-82
2021/12/19 11:44:48;;;;;;;4.40;1.50;;;;;;;6.76;91.00;101849.41;5043144;28;21066;-82
2021/12/19 11:47:34;;;;;;;8.00;2.37;;;;;;;6.77;91.23;101834.41;5046876;28;20202;-84
2021/12/19 11:50:16;;;;;;;3.63;1.67;;;;;;;6.77;91.45;101832.63;5047718;28;20308;-82
2021/12/19 11:52:43;;;;;;;4.23;2.00;;;;;;;6.77;91.60;101834.41;5042903;28;20250;-81
2021/12/19 11:55:25;;;;;;;5.47;2.00;;;;;;;6.75;91.36;101831.78;5048242;28;20296;-84
2021/12/19 11:58:25;;;;;;;4.30;1.93;;;;;;;6.78;91.62;101826.41;5047427;28;20225;-80
2021/12/19 12:01:02;;;;;;;3.03;1.90;;;;;;;6.77;91.43;101819.38;5041995;28;20198;-83
2021/12/19 12:03:42;;;;;;;3.83;2.30;;;;;;;6.78;91.98;101818.47;5049458;28;20200;-82
2021/12/19 12:06:29;;;;;;;7.13;3.70;;;;;;;6.78;91.67;101810.53;5051245;28;20205;-83
2021/12/19 12:09:12;;;;;;;6.20;3.07;;;;;;;6.77;92.22;101798.19;5049374;28;20252;-83
2021/12/19 12:12:11;;;;;;;3.37;2.50;;;;;;;6.78;91.70;101784.03;5042118;28;20584;-82
2021/12/19 12:14:41;;;;;;;4.33;2.50;;;;;;;6.77;92.01;101784.97;5049262;28;20209;-83
2021/12/19 12:17:14;;;;;;;3.73;2.57;;;;;;;6.78;92.02;101773.47;5054145;28;20198;-84
2021/12/19 12:19:42;;;;;;;5.30;2.30;;;;;;;6.78;92.45;101769.94;5042191;28;20298;-83
2021/12/19 12:22:37;;;;;;;6.57;1.63;;;;;;;6.76;92.15;101775.28;5052764;28;20288;-81
2021/12/19 12:25:10;;;;;;;3.27;1.87;;;;;;;6.75;92.56;101764.72;5038332;28;20229;-85
2021/12/19 12:27:38;;;;;;;7.53;5.57;;;;;;;6.76;93.05;101769.13;5043567;28;20194;-85
2021/12/19 12:30:05;;;;;;;10.57;7.93;;;;;;;6.76;92.72;101763.81;5046751;28;20707;-85
2021/12/19 12:32:34;;;;;;;13.03;11.67;;;;;;;6.77;93.03;101758.47;5053553;28;20300;-83
2021/12/19 12:35:03;;;;;;;13.03;9.20;;;;;;;6.79;92.39;101747.84;5057331;28;20217;-85
2021/12/19 12:37:33;;;;;;;6.27;3.87;;;;;;;6.81;92.64;101746.00;5042404;28;20831;-83
2021/12/19 12:40:19;;;;;;;18.57;10.20;;;;;;;6.81;92.20;101744.22;5045657;28;20237;-85
2021/12/19 12:43:08;;;;;;;6.10;2.70;;;;;;;6.82;92.15;101740.66;5042550;28;20218;-84
2021/12/19 12:46:06;;;;;;;15.03;11.80;;;;;;;6.81;92.50;101728.31;5055262;28;20210;-82